Terminal Aerodrome Forecast
Issued by NWS

Home | Current Version | Previous Version | Text Only | Print | Product List | Glossary On
Versions: 1 2 3 4 5 6 7 8 9 10 11 12
000
FTUS44 KOUN 250520
TAFPNC
TAF
KPNC 250520Z 2506/2606 16013KT P6SM BKN250
     FM251700 19010KT P6SM BKN200
     FM252300 01010KT P6SM BKN050 PROB30 2600/2606 4SM -TSRA
      OVC040CB=

USA.gov is the U.S. government's official web portal to all federal, state and local government web resources and services.